sensor_id;sensor_type;location;lat;lon;timestamp;pressure;altitude;pressure_sealevel;temperature;humidity
9077;BME280;4574;51.072;17.174;2022-09-29T00:01:51;98696.16;;;8.42;100.00
9077;BME280;4574;51.072;17.174;2022-09-29T00:04:20;98696.97;;;8.42;100.00
9077;BME280;4574;51.072;17.174;2022-09-29T00:06:48;98700.13;;;8.38;100.00
9077;BME280;4574;51.072;17.174;2022-09-29T00:09:16;98703.75;;;8.37;100.00
9077;BME280;4574;51.072;17.174;2022-09-29T00:11:47;98715.63;;;8.33;100.00
9077;BME280;4574;51.072;17.174;2022-09-29T00:14:15;98713.00;;;8.25;100.00
9077;BME280;4574;51.072;17.174;2022-09-29T00:16:44;98712.19;;;8.16;100.00
9077;BME280;4574;51.072;17.174;2022-09-29T00:19:13;98713.31;;;8.14;100.00
9077;BME280;4574;51.072;17.174;2022-09-29T00:21:42;98714.81;;;8.16;100.00
9077;BME280;4574;51.072;17.174;2022-09-29T00:24:10;98717.59;;;8.15;100.00
9077;BME280;4574;51.072;17.174;2022-09-29T00:26:39;98713.31;;;8.14;100.00
9077;BME280;4574;51.072;17.174;2022-09-29T00:29:09;98708.06;;;8.14;100.00
9077;BME280;4574;51.072;17.174;2022-09-29T00:31:38;98706.75;;;8.10;100.00
9077;BME280;4574;51.072;17.174;2022-09-29T00:34:07;98702.47;;;8.09;100.00
9077;BME280;4574;51.072;17.174;2022-09-29T00:36:35;98704.28;;;8.08;100.00
9077;BME280;4574;51.072;17.174;2022-09-29T00:39:04;98708.91;;;8.06;100.00
9077;BME280;4574;51.072;17.174;2022-09-29T00:41:34;98704.78;;;8.04;100.00
9077;BME280;4574;51.072;17.174;2022-09-29T00:44:04;98703.97;;;8.03;100.00
9077;BME280;4574;51.072;17.174;2022-09-29T00:46:42;98695.09;;;7.96;100.00
9077;BME280;4574;51.072;17.174;2022-09-29T00:49:17;98703.47;;;8.00;100.00
9077;BME280;4574;51.072;17.174;2022-09-29T00:51:50;98705.31;;;7.99;100.00
9077;BME280;4574;51.072;17.174;2022-09-29T00:54:23;98703.16;;;7.95;100.00
9077;BME280;4574;51.072;17.174;2022-09-29T00:56:56;98708.41;;;7.95;100.00
9077;BME280;4574;51.072;17.174;2022-09-29T00:59:31;98713.03;;;7.93;100.00
9077;BME280;4574;51.072;17.174;2022-09-29T01:02:01;98708.75;;;7.92;100.00
9077;BME280;4574;51.072;17.174;2022-09-29T01:04:32;98698.88;;;7.86;100.00
9077;BME280;4574;51.072;17.174;2022-09-29T01:07:01;98709.75;;;7.91;100.00
9077;BME280;4574;51.072;17.174;2022-09-29T01:09:31;98695.28;;;7.79;100.00
9077;BME280;4574;51.072;17.174;2022-09-29T01:12:04;98720.63;;;7.88;100.00
9077;BME280;4574;51.072;17.174;2022-09-29T01:14:34;98720.63;;;7.88;100.00
9077;BME280;4574;51.072;17.174;2022-09-29T01:17:05;98726.72;;;7.89;100.00
9077;BME280;4574;51.072;17.174;2022-09-29T01:19:40;98734.63;;;7.89;100.00
9077;BME280;4574;51.072;17.174;2022-09-29T01:22:24;98726.22;;;7.85;100.00
9077;BME280;4574;51.072;17.174;2022-09-29T01:25:14;98731.47;;;7.85;100.00
9077;BME280;4574;51.072;17.174;2022-09-29T01:28:17;98734.31;;;7.84;100.00
9077;BME280;4574;51.072;17.174;2022-09-29T01:31:01;98732.00;;;7.81;100.00
9077;BME280;4574;51.072;17.174;2022-09-29T01:33:38;98727.53;;;7.81;100.00
9077;BME280;4574;51.072;17.174;2022-09-29T01:36:18;98729.50;;;7.79;100.00
9077;BME280;4574;51.072;17.174;2022-09-29T01:39:00;98738.91;;;7.90;100.00
9077;BME280;4574;51.072;17.174;2022-09-29T01:41:37;98724.88;;;7.97;100.00
9077;BME280;4574;51.072;17.174;2022-09-29T01:44:13;98728.50;;;7.96;100.00
9077;BME280;4574;51.072;17.174;2022-09-29T01:46:47;98734.75;;;7.95;100.00
9077;BME280;4574;51.072;17.174;2022-09-29T01:49:19;98740.38;;;7.92;100.00
9077;BME280;4574;51.072;17.174;2022-09-29T01:51:53;98746.81;;;7.90;100.00
9077;BME280;4574;51.072;17.174;2022-09-29T01:54:26;98747.94;;;7.87;100.00
9077;BME280;4574;51.072;17.174;2022-09-29T01:57:00;98748.28;;;7.84;100.00
9077;BME280;4574;51.072;17.174;2022-09-29T01:59:35;98745.31;;;7.79;100.00
9077;BME280;4574;51.072;17.174;2022-09-29T02:02:10;98747.28;;;7.77;100.00
9077;BME280;4574;51.072;17.174;2022-09-29T02:04:42;98755.03;;;7.71;100.00
9077;BME280;4574;51.072;17.174;2022-09-29T02:07:17;98757.81;;;7.61;100.00
9077;BME280;4574;51.072;17.174;2022-09-29T02:09:51;98756.81;;;7.54;100.00
9077;BME280;4574;51.072;17.174;2022-09-29T02:12:26;98763.06;;;7.45;100.00
9077;BME280;4574;51.072;17.174;2022-09-29T02:14:57;98766.34;;;7.39;100.00
9077;BME280;4574;51.072;17.174;2022-09-29T02:17:30;98758.78;;;7.36;100.00
9077;BME280;4574;51.072;17.174;2022-09-29T02:20:01;98762.41;;;7.35;100.00
9077;BME280;4574;51.072;17.174;2022-09-29T02:22:30;98759.59;;;7.37;100.00
9077;BME280;4574;51.072;17.174;2022-09-29T02:25:00;98756.81;;;7.38;100.00
9077;BME280;4574;51.072;17.174;2022-09-29T02:27:28;98757.63;;;7.39;100.00
9077;BME280;4574;51.072;17.174;2022-09-29T02:29:59;98757.94;;;7.36;100.00
9077;BME280;4574;51.072;17.174;2022-09-29T02:32:30;98757.94;;;7.36;100.00
9077;BME280;4574;51.072;17.174;2022-09-29T02:35:01;98766.81;;;7.35;100.00
9077;BME280;4574;51.072;17.174;2022-09-29T02:37:36;98759.25;;;7.32;100.00
9077;BME280;4574;51.072;17.174;2022-09-29T02:40:21;98765.69;;;7.29;100.00
9077;BME280;4574;51.072;17.174;2022-09-29T02:43:06;98763.38;;;7.26;100.00
9077;BME280;4574;51.072;17.174;2022-09-29T02:45:43;98762.72;;;7.24;100.00
9077;BME280;4574;51.072;17.174;2022-09-29T02:51:15;98755.47;;;7.18;100.00
9077;BME280;4574;51.072;17.174;2022-09-29T02:53:55;98756.09;;;7.12;100.00
9077;BME280;4574;51.072;17.174;2022-09-29T02:56:32;98751.16;;;7.09;100.00
9077;BME280;4574;51.072;17.174;2022-09-29T02:59:07;98748.19;;;7.04;100.00
9077;BME280;4574;51.072;17.174;2022-09-29T03:01:47;98751.47;;;7.06;100.00
9077;BME280;4574;51.072;17.174;2022-09-29T03:04:19;98753.44;;;7.04;100.00
9077;BME280;4574;51.072;17.174;2022-09-29T03:06:48;98756.41;;;7.01;100.00
9077;BME280;4574;51.072;17.174;2022-09-29T03:09:16;98756.53;;;7.00;100.00
9077;BME280;4574;51.072;17.174;2022-09-29T03:11:45;98761.63;;;6.93;100.00
9077;BME280;4574;51.072;17.174;2022-09-29T03:14:14;98766.91;;;6.93;100.00
9077;BME280;4574;51.072;17.174;2022-09-29T03:16:43;98753.53;;;6.87;100.00
9077;BME280;4574;51.072;17.174;2022-09-29T03:19:13;98765.56;;;6.89;100.00
9077;BME280;4574;51.072;17.174;2022-09-29T03:21:43;98759.78;;;6.86;100.00
9077;BME280;4574;51.072;17.174;2022-09-29T03:24:11;98747.72;;;6.75;100.00
9077;BME280;4574;51.072;17.174;2022-09-29T03:26:40;98763.41;;;6.85;100.00
9077;BME280;4574;51.072;17.174;2022-09-29T03:29:08;98766.34;;;6.82;100.00
9077;BME280;4574;51.072;17.174;2022-09-29T03:31:38;98756.91;;;6.71;100.00
9077;BME280;4574;51.072;17.174;2022-09-29T03:34:07;98774.88;;;6.76;100.00
9077;BME280;4574;51.072;17.174;2022-09-29T03:36:36;98778.25;;;6.68;100.00
9077;BME280;4574;51.072;17.174;2022-09-29T03:39:06;98783.34;;;6.62;100.00
9077;BME280;4574;51.072;17.174;2022-09-29T03:41:34;98788.91;;;6.59;100.00
9077;BME280;4574;51.072;17.174;2022-09-29T03:44:03;98788.91;;;6.59;100.00
9077;BME280;4574;51.072;17.174;2022-09-29T03:46:31;98783.78;;;6.57;100.00
9077;BME280;4574;51.072;17.174;2022-09-29T03:49:00;98782.81;;;6.58;100.00
9077;BME280;4574;51.072;17.174;2022-09-29T03:51:28;98787.28;;;6.58;100.00
9077;BME280;4574;51.072;17.174;2022-09-29T03:53:57;98783.97;;;6.56;100.00
9077;BME280;4574;51.072;17.174;2022-09-29T03:56:27;98777.22;;;6.54;100.00
9077;BME280;4574;51.072;17.174;2022-09-29T03:58:55;98789.22;;;6.56;100.00
9077;BME280;4574;51.072;17.174;2022-09-29T04:01:24;98790.34;;;6.54;100.00
9077;BME280;4574;51.072;17.174;2022-09-29T04:03:53;98786.06;;;6.53;100.00
9077;BME280;4574;51.072;17.174;2022-09-29T04:06:21;98782.41;;;6.46;100.00
9077;BME280;4574;51.072;17.174;2022-09-29T04:08:50;98788.19;;;6.49;100.00
9077;BME280;4574;51.072;17.174;2022-09-29T04:11:18;98797.88;;;6.49;100.00
9077;BME280;4574;51.072;17.174;2022-09-29T04:13:48;98789.31;;;6.47;100.00
9077;BME280;4574;51.072;17.174;2022-09-29T04:16:17;98796.53;;;6.45;100.00
9077;BME280;4574;51.072;17.174;2022-09-29T04:18:45;98799.16;;;6.45;100.00
9077;BME280;4574;51.072;17.174;2022-09-29T04:21:14;98796.84;;;6.42;100.00
9077;BME280;4574;51.072;17.174;2022-09-29T04:23:42;98790.44;;;6.36;100.00
9077;BME280;4574;51.072;17.174;2022-09-29T04:26:11;98792.56;;;6.41;100.00
9077;BME280;4574;51.072;17.174;2022-09-29T04:28:39;98801.59;;;6.38;100.00
9077;BME280;4574;51.072;17.174;2022-09-29T04:31:09;98796.34;;;6.38;100.00
9077;BME280;4574;51.072;17.174;2022-09-29T04:33:38;98806.03;;;6.38;100.00
9077;BME280;4574;51.072;17.174;2022-09-29T04:36:07;98802.72;;;6.36;100.00
9077;BME280;4574;51.072;17.174;2022-09-29T04:38:35;98813.25;;;6.36;100.00
9077;BME280;4574;51.072;17.174;2022-09-29T04:41:04;98812.75;;;6.32;100.00
9077;BME280;4574;51.072;17.174;2022-09-29T04:43:33;98802.69;;;6.28;100.00
9077;BME280;4574;51.072;17.174;2022-09-29T04:46:03;98816.19;;;6.33;100.00
9077;BME280;4574;51.072;17.174;2022-09-29T04:48:34;98829.31;;;6.33;100.00
9077;BME280;4574;51.072;17.174;2022-09-29T04:51:04;98819.72;;;6.24;100.00
9077;BME280;4574;51.072;17.174;2022-09-29T04:53:34;98830.59;;;6.29;100.00
9077;BME280;4574;51.072;17.174;2022-09-29T04:56:07;98827.16;;;6.28;100.00
9077;BME280;4574;51.072;17.174;2022-09-29T04:58:35;98827.31;;;6.27;100.00
9077;BME280;4574;51.072;17.174;2022-09-29T05:01:06;98825.97;;;6.23;100.00
9077;BME280;4574;51.072;17.174;2022-09-29T05:03:36;98833.53;;;6.26;100.00
9077;BME280;4574;51.072;17.174;2022-09-29T05:06:05;98835.50;;;6.24;100.00
9077;BME280;4574;51.072;17.174;2022-09-29T05:08:35;98835.50;;;6.24;100.00
9077;BME280;4574;51.072;17.174;2022-09-29T05:11:04;98830.41;;;6.22;100.00
9077;BME280;4574;51.072;17.174;2022-09-29T05:13:34;98823.34;;;6.23;100.00
9077;BME280;4574;51.072;17.174;2022-09-29T05:16:03;98822.53;;;6.22;100.00
9077;BME280;4574;51.072;17.174;2022-09-29T05:18:32;98824.78;;;6.17;100.00
9077;BME280;4574;51.072;17.174;2022-09-29T05:21:06;98825.28;;;6.21;100.00
9077;BME280;4574;51.072;17.174;2022-09-29T05:23:54;98822.00;;;6.19;100.00
9077;BME280;4574;51.072;17.174;2022-09-29T05:26:23;98828.09;;;6.19;100.00
9077;BME280;4574;51.072;17.174;2022-09-29T05:28:51;98826.44;;;6.18;100.00
9077;BME280;4574;51.072;17.174;2022-09-29T05:31:20;98822.00;;;6.19;100.00
9077;BME280;4574;51.072;17.174;2022-09-29T05:33:48;98825.91;;;6.15;100.00
9077;BME280;4574;51.072;17.174;2022-09-29T05:36:19;98842.19;;;6.18;100.00
9077;BME280;4574;51.072;17.174;2022-09-29T05:38:47;98839.03;;;6.15;100.00
9077;BME280;4574;51.072;17.174;2022-09-29T05:41:16;98849.94;;;6.02;100.00
9077;BME280;4574;51.072;17.174;2022-09-29T05:43:49;98852.94;;;5.90;100.00
9077;BME280;4574;51.072;17.174;2022-09-29T05:46:20;98856.88;;;5.76;100.00
9077;BME280;4574;51.072;17.174;2022-09-29T05:48:49;98855.78;;;5.79;100.00
9077;BME280;4574;51.072;17.174;2022-09-29T05:51:21;98851.06;;;5.82;100.00
9077;BME280;4574;51.072;17.174;2022-09-29T05:53:50;98851.59;;;5.86;100.00
9077;BME280;4574;51.072;17.174;2022-09-29T05:56:21;98856.25;;;5.92;100.00
9077;BME280;4574;51.072;17.174;2022-09-29T05:58:50;98861.19;;;5.95;100.00
9077;BME280;4574;51.072;17.174;2022-09-29T06:01:20;98862.84;;;5.96;100.00
9077;BME280;4574;51.072;17.174;2022-09-29T06:03:49;98863.69;;;5.96;100.00
9077;BME280;4574;51.072;17.174;2022-09-29T06:06:23;98870.34;;;5.91;100.00
9077;BME280;4574;51.072;17.174;2022-09-29T06:08:52;98870.34;;;5.91;100.00
9077;BME280;4574;51.072;17.174;2022-09-29T06:11:22;98871.56;;;5.96;100.00
9077;BME280;4574;51.072;17.174;2022-09-29T06:13:52;98862.03;;;5.95;100.00
9077;BME280;4574;51.072;17.174;2022-09-29T06:16:23;98870.50;;;6.07;100.00
9077;BME280;4574;51.072;17.174;2022-09-29T06:18:52;98865.53;;;6.04;100.00
9077;BME280;4574;51.072;17.174;2022-09-29T06:21:24;98872.88;;;6.18;100.00
9077;BME280;4574;51.072;17.174;2022-09-29T06:23:54;98869.94;;;6.21;100.00
9077;BME280;4574;51.072;17.174;2022-09-29T06:26:23;98875.94;;;6.31;100.00
9077;BME280;4574;51.072;17.174;2022-09-29T06:28:53;98859.38;;;6.30;100.00
9077;BME280;4574;51.072;17.174;2022-09-29T06:31:24;98883.44;;;6.43;100.00
9077;BME280;4574;51.072;17.174;2022-09-29T06:33:56;98885.28;;;6.51;100.00
9077;BME280;4574;51.072;17.174;2022-09-29T06:36:29;98886.31;;;6.57;100.00
9077;BME280;4574;51.072;17.174;2022-09-29T06:39:16;98885.09;;;6.69;100.00
9077;BME280;4574;51.072;17.174;2022-09-29T06:41:45;98897.38;;;6.86;100.00
9077;BME280;4574;51.072;17.174;2022-09-29T06:44:19;98881.16;;;6.99;100.00
9077;BME280;4574;51.072;17.174;2022-09-29T06:46:48;98889.69;;;7.26;100.00
9077;BME280;4574;51.072;17.174;2022-09-29T06:49:17;98887.41;;;7.31;100.00
9077;BME280;4574;51.072;17.174;2022-09-29T06:51:47;98895.66;;;7.36;100.00
9077;BME280;4574;51.072;17.174;2022-09-29T06:54:18;98889.75;;;7.42;100.00
9077;BME280;4574;51.072;17.174;2022-09-29T06:56:47;98882.84;;;7.49;100.00
9077;BME280;4574;51.072;17.174;2022-09-29T06:59:16;98894.94;;;7.68;100.00
9077;BME280;4574;51.072;17.174;2022-09-29T07:01:44;98894.09;;;7.67;100.00
9077;BME280;4574;51.072;17.174;2022-09-29T07:04:17;98900.09;;;7.93;100.00
9077;BME280;4574;51.072;17.174;2022-09-29T07:06:48;98906.34;;;8.00;100.00
9077;BME280;4574;51.072;17.174;2022-09-29T07:09:18;98898.13;;;8.11;100.00
9077;BME280;4574;51.072;17.174;2022-09-29T07:11:49;98900.16;;;8.25;100.00
9077;BME280;4574;51.072;17.174;2022-09-29T07:14:19;98905.44;;;8.41;100.00
9077;BME280;4574;51.072;17.174;2022-09-29T07:16:49;98910.88;;;8.47;100.00
9077;BME280;4574;51.072;17.174;2022-09-29T07:19:18;98909.72;;;8.50;100.00
9077;BME280;4574;51.072;17.174;2022-09-29T07:40:43;98905.19;;;9.52;100.00
9077;BME280;4574;51.072;17.174;2022-09-29T07:43:12;98908.13;;;9.57;100.00
9077;BME280;4574;51.072;17.174;2022-09-29T07:45:46;98917.94;;;9.79;100.00
9077;BME280;4574;51.072;17.174;2022-09-29T07:48:15;98916.53;;;9.91;100.00
9077;BME280;4574;51.072;17.174;2022-09-29T07:50:44;98917.84;;;9.95;100.00
9077;BME280;4574;51.072;17.174;2022-09-29T07:53:13;98911.53;;;10.04;100.00
9077;BME280;4574;51.072;17.174;2022-09-29T07:55:43;98915.13;;;10.11;100.00
9077;BME280;4574;51.072;17.174;2022-09-29T07:58:12;98920.03;;;10.22;100.00
9077;BME280;4574;51.072;17.174;2022-09-29T08:00:40;98925.56;;;10.35;100.00
9077;BME280;4574;51.072;17.174;2022-09-29T08:03:09;98927.78;;;10.46;100.00
9077;BME280;4574;51.072;17.174;2022-09-29T08:05:37;98924.72;;;10.57;100.00
9077;BME280;4574;51.072;17.174;2022-09-29T08:08:08;98921.81;;;10.66;100.00
9077;BME280;4574;51.072;17.174;2022-09-29T08:10:36;98931.63;;;10.80;100.00
9077;BME280;4574;51.072;17.174;2022-09-29T08:13:20;98920.06;;;10.96;100.00
9077;BME280;4574;51.072;17.174;2022-09-29T08:15:56;98922.28;;;11.07;100.00
9077;BME280;4574;51.072;17.174;2022-09-29T08:18:25;98921.72;;;11.26;100.00
9077;BME280;4574;51.072;17.174;2022-09-29T08:20:54;98925.56;;;11.38;100.00
9077;BME280;4574;51.072;17.174;2022-09-29T08:23:28;98910.94;;;11.42;100.00
9077;BME280;4574;51.072;17.174;2022-09-29T08:25:59;98931.63;;;11.61;100.00
9077;BME280;4574;51.072;17.174;2022-09-29T08:28:30;98930.13;;;11.73;100.00
9077;BME280;4574;51.072;17.174;2022-09-29T08:31:03;98931.69;;;11.82;100.00
9077;BME280;4574;51.072;17.174;2022-09-29T08:33:33;98942.09;;;11.98;100.00
9077;BME280;4574;51.072;17.174;2022-09-29T08:36:03;98939.97;;;12.07;100.00
9077;BME280;4574;51.072;17.174;2022-09-29T08:38:41;98946.31;;;12.27;100.00
9077;BME280;4574;51.072;17.174;2022-09-29T08:41:26;98943.91;;;12.32;100.00
9077;BME280;4574;51.072;17.174;2022-09-29T08:43:59;98939.66;;;12.38;100.00
9077;BME280;4574;51.072;17.174;2022-09-29T08:46:32;98949.78;;;12.49;100.00
9077;BME280;4574;51.072;17.174;2022-09-29T08:49:10;98934.06;;;12.47;100.00
9077;BME280;4574;51.072;17.174;2022-09-29T08:52:05;98930.91;;;12.58;100.00
9077;BME280;4574;51.072;17.174;2022-09-29T08:54:45;98943.91;;;12.74;100.00
9077;BME280;4574;51.072;17.174;2022-09-29T08:57:17;98943.22;;;12.87;100.00
9077;BME280;4574;51.072;17.174;2022-09-29T08:59:52;98945.94;;;12.93;100.00
9077;BME280;4574;51.072;17.174;2022-09-29T09:02:57;98948.59;;;12.93;100.00
9077;BME280;4574;51.072;17.174;2022-09-29T09:05:46;98948.94;;;12.90;100.00
9077;BME280;4574;51.072;17.174;2022-09-29T09:08:32;98943.91;;;12.95;100.00
9077;BME280;4574;51.072;17.174;2022-09-29T09:11:24;98952.88;;;12.94;100.00
9077;BME280;4574;51.072;17.174;2022-09-29T09:14:03;98947.78;;;12.93;100.00
9077;BME280;4574;51.072;17.174;2022-09-29T09:16:45;98954.63;;;13.08;100.00
9077;BME280;4574;51.072;17.174;2022-09-29T09:19:45;98953.28;;;13.19;100.00
9077;BME280;4574;51.072;17.174;2022-09-29T09:22:22;98942.44;;;13.20;100.00
9077;BME280;4574;51.072;17.174;2022-09-29T09:24:56;98949.25;;;13.29;100.00
9077;BME280;4574;51.072;17.174;2022-09-29T09:27:28;98956.59;;;13.27;100.00
9077;BME280;4574;51.072;17.174;2022-09-29T09:30:04;98949.41;;;13.21;100.00
9077;BME280;4574;51.072;17.174;2022-09-29T09:32:40;98960.28;;;13.26;100.00
9077;BME280;4574;51.072;17.174;2022-09-29T09:35:34;98971.94;;;13.25;100.00
9077;BME280;4574;51.072;17.174;2022-09-29T09:38:20;98966.84;;;13.30;100.00
9077;BME280;4574;51.072;17.174;2022-09-29T09:40:53;98969.66;;;13.22;100.00
9077;BME280;4574;51.072;17.174;2022-09-29T09:43:26;98979.50;;;13.28;100.00
9077;BME280;4574;51.072;17.174;2022-09-29T09:46:01;98987.09;;;13.31;100.00
9077;BME280;4574;51.072;17.174;2022-09-29T09:48:36;98986.72;;;13.34;100.00
9077;BME280;4574;51.072;17.174;2022-09-29T09:51:20;98983.91;;;13.42;100.00
9077;BME280;4574;51.072;17.174;2022-09-29T09:53:54;98990.94;;;13.56;100.00
9077;BME280;4574;51.072;17.174;2022-09-29T09:56:37;98988.28;;;13.56;100.00
9077;BME280;4574;51.072;17.174;2022-09-29T09:59:20;98987.03;;;13.52;100.00
9077;BME280;4574;51.072;17.174;2022-09-29T10:01:50;98977.66;;;13.56;100.00
9077;BME280;4574;51.072;17.174;2022-09-29T10:04:21;98980.69;;;13.53;100.00
9077;BME280;4574;51.072;17.174;2022-09-29T10:06:50;98978.78;;;13.68;100.00
9077;BME280;4574;51.072;17.174;2022-09-29T10:09:19;98989.25;;;13.76;100.00
9077;BME280;4574;51.072;17.174;2022-09-29T10:11:48;98974.25;;;13.68;100.00
9077;BME280;4574;51.072;17.174;2022-09-29T10:14:21;98980.19;;;13.70;100.00
9077;BME280;4574;51.072;17.174;2022-09-29T10:16:55;98986.81;;;13.81;100.00
9077;BME280;4574;51.072;17.174;2022-09-29T10:19:55;98985.81;;;13.82;100.00
9077;BME280;4574;51.072;17.174;2022-09-29T10:22:26;98984.84;;;13.96;100.00
9077;BME280;4574;51.072;17.174;2022-09-29T10:25:05;98990.22;;;14.09;100.00
9077;BME280;4574;51.072;17.174;2022-09-29T10:27:39;98988.81;;;14.13;99.75
9077;BME280;4574;51.072;17.174;2022-09-29T10:30:17;98987.78;;;14.14;98.62
9077;BME280;4574;51.072;17.174;2022-09-29T10:32:46;98984.13;;;14.15;98.81
9077;BME280;4574;51.072;17.174;2022-09-29T10:35:23;98978.00;;;14.21;98.18
9077;BME280;4574;51.072;17.174;2022-09-29T10:37:59;98984.19;;;14.28;98.07
9077;BME280;4574;51.072;17.174;2022-09-29T10:40:28;98987.28;;;14.38;95.78
9077;BME280;4574;51.072;17.174;2022-09-29T10:42:57;98998.22;;;14.62;99.02
9077;BME280;4574;51.072;17.174;2022-09-29T10:45:27;99001.50;;;14.83;95.16
9077;BME280;4574;51.072;17.174;2022-09-29T10:48:08;99001.09;;;14.86;91.05
9077;BME280;4574;51.072;17.174;2022-09-29T10:50:48;98993.13;;;14.86;93.87
9077;BME280;4574;51.072;17.174;2022-09-29T10:53:22;98994.53;;;14.82;93.51
9077;BME280;4574;51.072;17.174;2022-09-29T10:55:54;98996.19;;;14.83;95.37
9077;BME280;4574;51.072;17.174;2022-09-29T10:58:27;98988.00;;;14.85;94.26
9077;BME280;4574;51.072;17.174;2022-09-29T11:01:17;99005.19;;;14.82;92.38
9077;BME280;4574;51.072;17.174;2022-09-29T11:03:49;99001.53;;;14.90;90.74
9077;BME280;4574;51.072;17.174;2022-09-29T11:06:26;99003.59;;;14.88;93.11
9077;BME280;4574;51.072;17.174;2022-09-29T11:08:57;98997.81;;;14.84;94.99
9077;BME280;4574;51.072;17.174;2022-09-29T11:11:28;98999.06;;;14.88;95.55
9077;BME280;4574;51.072;17.174;2022-09-29T11:13:58;98993.31;;;14.78;95.47
9077;BME280;4574;51.072;17.174;2022-09-29T11:16:29;99005.19;;;14.82;95.58
9077;BME280;4574;51.072;17.174;2022-09-29T11:19:04;98991.06;;;14.75;96.09
9077;BME280;4574;51.072;17.174;2022-09-29T11:21:58;99010.75;;;14.87;95.27
9077;BME280;4574;51.072;17.174;2022-09-29T11:24:54;99003.59;;;14.88;95.97
9077;BME280;4574;51.072;17.174;2022-09-29T11:27:35;99009.31;;;14.91;96.28
9077;BME280;4574;51.072;17.174;2022-09-29T11:30:10;99009.72;;;14.88;92.27
9077;BME280;4574;51.072;17.174;2022-09-29T11:33:02;99019.13;;;14.84;94.33
9077;BME280;4574;51.072;17.174;2022-09-29T11:35:41;99010.13;;;14.85;96.39
9077;BME280;4574;51.072;17.174;2022-09-29T11:38:26;99006.25;;;14.88;95.93
9077;BME280;4574;51.072;17.174;2022-09-29T11:41:07;99007.66;;;14.90;95.95
9077;BME280;4574;51.072;17.174;2022-09-29T11:43:44;99001.94;;;14.93;95.94
9077;BME280;4574;51.072;17.174;2022-09-29T11:46:30;98995.59;;;14.88;95.85
9077;BME280;4574;51.072;17.174;2022-09-29T11:49:17;99003.78;;;14.99;95.42
9077;BME280;4574;51.072;17.174;2022-09-29T11:51:59;99008.50;;;15.10;96.08
9077;BME280;4574;51.072;17.174;2022-09-29T11:54:53;99006.47;;;15.06;90.81
9077;BME280;4574;51.072;17.174;2022-09-29T11:57:43;99008.50;;;15.10;93.41
9077;BME280;4574;51.072;17.174;2022-09-29T12:00:17;99009.13;;;15.12;94.66
9077;BME280;4574;51.072;17.174;2022-09-29T12:03:15;99014.66;;;15.04;90.21
9077;BME280;4574;51.072;17.174;2022-09-29T12:05:56;99003.38;;;15.02;92.75
9077;BME280;4574;51.072;17.174;2022-09-29T12:08:41;99001.94;;;15.06;92.47
9077;BME280;4574;51.072;17.174;2022-09-29T12:11:23;98993.75;;;15.08;95.68
9077;BME280;4574;51.072;17.174;2022-09-29T12:14:24;63291.66;;;-139.42;100.00
9077;BME280;4574;51.072;17.174;2022-09-29T12:16:59;63291.66;;;-139.42;100.00
9077;BME280;4574;51.072;17.174;2022-09-29T12:19:32;63291.66;;;-139.42;100.00
9077;BME280;4574;51.072;17.174;2022-09-29T12:22:08;63291.66;;;-139.42;100.00
9077;BME280;4574;51.072;17.174;2022-09-29T12:24:39;63291.66;;;-139.42;100.00
9077;BME280;4574;51.072;17.174;2022-09-29T12:27:14;63291.66;;;-139.42;100.00
9077;BME280;4574;51.072;17.174;2022-09-29T12:29:47;63291.66;;;-139.42;100.00
9077;BME280;4574;51.072;17.174;2022-09-29T12:32:22;63291.66;;;-139.42;100.00
9077;BME280;4574;51.072;17.174;2022-09-29T12:34:55;63291.66;;;-139.42;100.00
9077;BME280;4574;51.072;17.174;2022-09-29T12:37:30;63291.66;;;-139.42;100.00
9077;BME280;4574;51.072;17.174;2022-09-29T12:40:04;63291.66;;;-139.42;100.00
9077;BME280;4574;51.072;17.174;2022-09-29T12:42:47;63291.66;;;-139.42;100.00
9077;BME280;4574;51.072;17.174;2022-09-29T12:45:24;63291.66;;;-139.42;100.00
9077;BME280;4574;51.072;17.174;2022-09-29T12:48:09;63291.66;;;-139.42;100.00
9077;BME280;4574;51.072;17.174;2022-09-29T12:50:48;63291.66;;;-139.42;100.00
9077;BME280;4574;51.072;17.174;2022-09-29T12:53:21;63291.66;;;-139.42;100.00
9077;BME280;4574;51.072;17.174;2022-09-29T12:55:56;63291.66;;;-139.42;100.00
9077;BME280;4574;51.072;17.174;2022-09-29T12:58:34;63291.66;;;-139.42;100.00
9077;BME280;4574;51.072;17.174;2022-09-29T13:01:19;63291.66;;;-139.42;100.00
9077;BME280;4574;51.072;17.174;2022-09-29T13:07:07;63291.66;;;-139.42;100.00
9077;BME280;4574;51.072;17.174;2022-09-29T13:13:00;63291.66;;;-139.42;100.00
9077;BME280;4574;51.072;17.174;2022-09-29T13:15:57;63291.66;;;-139.42;100.00
9077;BME280;4574;51.072;17.174;2022-09-29T13:19:04;63291.66;;;-139.42;100.00
9077;BME280;4574;51.072;17.174;2022-09-29T13:21:56;63291.66;;;-139.42;100.00
9077;BME280;4574;51.072;17.174;2022-09-29T13:24:40;63291.66;;;-139.42;100.00
9077;BME280;4574;51.072;17.174;2022-09-29T13:27:23;63291.66;;;-139.42;100.00
9077;BME280;4574;51.072;17.174;2022-09-29T13:29:59;63291.66;;;-139.42;100.00
9077;BME280;4574;51.072;17.174;2022-09-29T13:32:36;63291.66;;;-139.42;100.00
9077;BME280;4574;51.072;17.174;2022-09-29T13:35:12;63291.66;;;-139.42;100.00
9077;BME280;4574;51.072;17.174;2022-09-29T13:37:49;63291.66;;;-139.42;100.00
9077;BME280;4574;51.072;17.174;2022-09-29T13:40:22;63291.66;;;-139.42;100.00
9077;BME280;4574;51.072;17.174;2022-09-29T13:42:52;63291.66;;;-139.42;100.00
9077;BME280;4574;51.072;17.174;2022-09-29T13:45:42;63291.66;;;-139.42;100.00
9077;BME280;4574;51.072;17.174;2022-09-29T13:48:46;63291.66;;;-139.42;100.00
9077;BME280;4574;51.072;17.174;2022-09-29T13:51:40;63291.66;;;-139.42;100.00
9077;BME280;4574;51.072;17.174;2022-09-29T13:54:23;63291.66;;;-139.42;100.00
9077;BME280;4574;51.072;17.174;2022-09-29T13:59:44;63291.66;;;-139.42;100.00
9077;BME280;4574;51.072;17.174;2022-09-29T14:02:19;63291.66;;;-139.42;100.00
9077;BME280;4574;51.072;17.174;2022-09-29T14:04:57;63291.66;;;-139.42;100.00
9077;BME280;4574;51.072;17.174;2022-09-29T14:07:37;63291.66;;;-139.42;100.00
9077;BME280;4574;51.072;17.174;2022-09-29T14:10:18;63291.66;;;-139.42;100.00
9077;BME280;4574;51.072;17.174;2022-09-29T14:12:53;63291.66;;;-139.42;100.00
9077;BME280;4574;51.072;17.174;2022-09-29T14:15:25;63291.66;;;-139.42;100.00